createdAt,value
2019-06-07T03:50:33.528Z,100.00
2019-06-07T03:53:03.632Z,100.00
2019-06-07T03:55:38.554Z,100.00
2019-06-07T04:00:43.158Z,100.00
2019-06-07T04:03:32.745Z,100.00
2019-06-07T04:05:47.956Z,99.91
2019-06-07T04:08:19.301Z,99.29
2019-06-07T04:10:59.577Z,97.45
2019-06-07T04:13:23.352Z,96.02
2019-06-07T04:15:54.527Z,94.89
2019-06-07T04:18:28.590Z,94.19
2019-06-07T04:21:01.686Z,94.59
2019-06-07T04:23:37.988Z,94.85
2019-06-07T04:26:07.867Z,95.37
2019-06-07T04:29:31.077Z,94.85
2019-06-07T04:31:16.153Z,94.69
2019-06-07T04:33:51.051Z,93.48
2019-06-07T04:36:45.623Z,93.35
2019-06-07T04:42:35.029Z,93.16
2019-06-07T04:45:29.202Z,92.93
2019-06-07T04:47:45.271Z,93.73
2019-06-07T04:50:19.458Z,93.23
2019-06-07T04:52:53.655Z,92.45
2019-06-07T04:55:29.094Z,91.81
2019-06-07T04:58:04.807Z,89.48
2019-06-07T05:00:54.292Z,90.03
2019-06-07T05:03:18.516Z,89.19
2019-06-07T05:05:54.891Z,89.12
2019-06-07T05:08:31.540Z,89.88
2019-06-07T05:11:06.935Z,89.00
2019-06-07T05:13:43.809Z,87.93
2019-06-07T05:16:19.974Z,87.25
2019-06-07T05:18:54.361Z,88.07
2019-06-07T05:21:51.517Z,88.07
2019-06-07T05:24:10.102Z,87.96
2019-06-07T05:26:55.920Z,88.87
2019-06-07T05:29:30.787Z,89.90
2019-06-07T05:32:09.215Z,89.67
2019-06-07T06:07:56.949Z,77.47
2019-06-07T06:10:30.359Z,76.68
2019-06-07T06:13:05.085Z,77.13
2019-06-07T06:15:50.817Z,78.65
2019-06-07T06:18:15.351Z,79.62
2019-06-07T06:21:12.774Z,82.03
2019-06-07T06:23:25.919Z,84.64
2019-06-07T06:26:03.469Z,86.72
2019-06-07T06:28:45.388Z,88.86
2019-06-07T06:31:23.240Z,89.56
2019-06-07T06:33:57.529Z,89.54
2019-06-07T06:36:32.497Z,90.21
2019-06-07T06:39:10.872Z,89.56
2019-06-07T06:41:56.825Z,90.27
2019-06-07T06:44:22.524Z,88.34
2019-06-07T06:46:58.288Z,88.46
2019-06-07T06:49:32.536Z,88.39
2019-06-07T06:52:08.027Z,89.72
2019-06-07T06:54:54.256Z,88.48
2019-06-07T06:57:21.873Z,89.69
2019-06-07T06:59:55.867Z,89.57
2019-06-07T07:02:31.572Z,90.98
2019-06-07T07:05:08.943Z,90.51
2019-06-07T07:07:45.448Z,90.14
2019-06-07T07:10:24.994Z,90.53
2019-06-07T07:13:00.366Z,91.47
2019-06-07T07:15:33.401Z,90.39
2019-06-07T07:21:26.283Z,89.29
2019-06-07T07:24:20.266Z,85.78
2019-06-07T07:26:53.931Z,84.04
2019-06-07T07:29:26.752Z,86.84
2019-06-07T07:32:01.686Z,87.25
2019-06-07T07:34:38.253Z,87.03
2019-06-07T07:37:33.278Z,87.89
2019-06-07T07:40:54.745Z,88.34
2019-06-07T07:42:45.195Z,89.80
2019-06-07T07:45:20.391Z,88.16
2019-06-07T07:48:08.792Z,86.11
2019-06-07T07:50:29.747Z,84.33
2019-06-07T07:53:03.475Z,82.26
2019-06-07T07:55:38.009Z,79.51
2019-06-07T07:58:15.631Z,77.76
2019-06-07T08:01:00.145Z,78.23
2019-06-07T08:03:26.931Z,76.95
2019-06-07T08:06:00.406Z,73.57
2019-06-07T08:08:33.614Z,72.29
2019-06-07T08:11:07.657Z,69.92
2019-06-07T08:13:43.993Z,69.47
2019-06-07T08:16:29.647Z,69.13
2019-06-07T08:19:04.559Z,67.44
2019-06-07T08:21:38.894Z,64.14
2019-06-07T08:24:14.410Z,61.29
2019-06-07T08:27:13.013Z,59.43
2019-06-07T08:29:26.076Z,58.17
2019-06-07T08:32:00.935Z,60.36
2019-06-07T08:34:35.645Z,59.72
2019-06-07T08:37:10.042Z,58.71
2019-06-07T08:39:43.696Z,57.05
2019-06-07T08:42:22.044Z,57.94
2019-06-07T08:44:54.296Z,56.77
2019-06-07T08:47:29.181Z,55.94
2019-06-07T08:50:07.766Z,56.67
2019-06-07T08:52:39.219Z,57.37
2019-06-07T08:55:15.388Z,56.93
2019-06-07T08:57:49.077Z,57.64
2019-06-07T09:03:06.471Z,57.05
2019-06-07T09:05:37.793Z,54.97
2019-06-07T09:08:29.207Z,57.11
2019-06-07T09:10:48.662Z,55.80
2019-06-07T09:13:22.330Z,54.00
2019-06-07T09:16:04.378Z,54.43
2019-06-07T09:18:43.033Z,55.06
2019-06-07T09:21:09.949Z,53.10
2019-06-07T09:23:44.212Z,54.06
2019-06-07T09:26:19.157Z,53.54
2019-06-07T09:28:57.640Z,51.38
2019-06-07T09:31:51.137Z,51.32
2019-06-07T09:34:13.782Z,49.73
2019-06-07T09:36:42.747Z,51.29
2019-06-07T09:39:14.928Z,52.29
2019-06-07T09:41:49.887Z,51.38
2019-06-07T09:44:25.695Z,49.75
2019-06-07T09:47:14.221Z,47.94
2019-06-07T09:49:32.627Z,48.07
2019-06-07T09:52:06.827Z,48.43
2019-06-07T09:57:16.409Z,49.66
2019-06-07T09:59:40.216Z,51.58
2019-06-07T10:02:13.790Z,52.21
2019-06-07T10:04:44.575Z,53.76
2019-06-07T10:07:30.729Z,51.81
2019-06-07T10:12:21.522Z,48.55
2019-06-07T10:14:54.419Z,48.81
2019-06-07T10:17:28.590Z,48.53
2019-06-07T10:20:03.914Z,48.43
2019-06-07T10:22:36.445Z,47.33
2019-06-07T10:25:10.618Z,44.69
2019-06-07T10:27:41.970Z,45.16
2019-06-07T10:30:13.335Z,45.86
2019-06-07T10:32:45.315Z,44.49
2019-06-07T10:35:17.236Z,44.85
2019-06-07T10:37:48.547Z,44.86
2019-06-07T10:40:20.525Z,43.78
2019-06-07T10:42:52.726Z,43.16
2019-06-07T10:45:24.955Z,43.16
2019-06-07T10:47:57.324Z,44.12
2019-06-07T10:50:28.616Z,45.84
2019-06-07T10:52:59.925Z,45.19
2019-06-07T10:55:31.288Z,44.07
2019-06-07T10:58:03.310Z,44.49
2019-06-07T11:00:34.820Z,43.45
2019-06-07T11:03:07.857Z,42.66
2019-06-07T11:05:39.865Z,43.00
2019-06-07T11:08:14.563Z,42.56
2019-06-07T11:10:47.867Z,40.83
2019-06-07T11:13:19.134Z,40.52
2019-06-07T11:17:13.286Z,38.19
2019-06-07T11:19:44.945Z,39.73
2019-06-07T11:22:16.446Z,39.55
2019-06-07T11:24:47.978Z,38.86
2019-06-07T11:27:19.858Z,38.55
2019-06-07T11:29:53.564Z,37.47
2019-06-07T11:32:25.602Z,37.45
2019-06-07T11:34:56.776Z,37.41
2019-06-07T11:37:27.927Z,37.85
2019-06-07T11:39:59.059Z,36.87
2019-06-07T11:42:30.344Z,35.60
2019-06-07T11:45:01.589Z,34.00
2019-06-07T11:47:32.826Z,33.95
2019-06-07T11:50:07.254Z,34.32
2019-06-07T11:52:39.332Z,36.19
2019-06-07T11:55:11.547Z,36.12
2019-06-07T11:57:43.224Z,36.76
2019-06-07T12:00:18.389Z,37.37
2019-06-07T12:02:49.971Z,38.39
2019-06-07T12:05:21.251Z,38.95
2019-06-07T12:07:52.401Z,39.54
2019-06-07T12:10:25.151Z,39.71
2019-06-07T12:12:56.450Z,41.45
2019-06-07T12:15:27.845Z,40.28
2019-06-07T12:17:59.313Z,40.17
2019-06-07T12:20:30.921Z,41.67
2019-06-07T12:23:02.204Z,40.40
2019-06-07T12:25:33.393Z,40.48
2019-06-07T12:28:04.786Z,40.53
2019-06-07T12:30:35.935Z,41.33
2019-06-07T12:33:07.118Z,40.32
2019-06-07T12:35:38.320Z,40.03
2019-06-07T12:38:09.497Z,38.70
2019-06-07T12:40:40.691Z,39.05
2019-06-07T12:43:12.481Z,39.94
2019-06-07T12:45:45.543Z,40.26
2019-06-07T12:48:20.779Z,39.99
2019-06-07T12:50:49.561Z,40.74
2019-06-07T12:53:25.838Z,41.23
2019-06-07T12:55:53.762Z,40.76
2019-06-07T12:58:32.608Z,41.24
2019-06-07T13:00:59.816Z,41.03
2019-06-07T13:03:31.036Z,39.60
2019-06-07T13:06:02.269Z,38.84
2019-06-07T13:08:34.438Z,39.84
2019-06-07T13:11:15.896Z,41.25
2019-06-07T13:13:38.740Z,42.15
2019-06-07T13:16:11.041Z,41.71
2019-06-07T13:18:42.717Z,41.40
2019-06-07T13:21:14.001Z,41.96
2019-06-07T13:23:45.213Z,43.91
2019-06-07T13:26:17.348Z,43.68
2019-06-07T13:28:49.790Z,43.95
2019-06-07T13:31:21.184Z,41.97
2019-06-07T13:33:52.489Z,40.90
2019-06-07T13:36:24.716Z,39.26
2019-06-07T13:38:55.975Z,38.31
2019-06-07T13:41:40.453Z,37.38
2019-06-07T13:44:02.234Z,37.08
2019-06-07T13:46:33.840Z,37.76
2019-06-07T13:49:05.993Z,36.25
2019-06-07T13:51:37.228Z,35.54
2019-06-07T13:54:08.483Z,35.54
2019-06-07T13:57:00.906Z,34.84
2019-06-07T13:59:13.324Z,35.97
2019-06-07T14:01:45.080Z,37.35
2019-06-07T14:04:16.276Z,36.79
2019-06-07T14:06:49.079Z,37.42
2019-06-07T14:09:21.146Z,37.39
2019-06-07T14:11:52.753Z,37.82
2019-06-07T14:14:24.736Z,37.82
2019-06-07T14:16:56.930Z,39.86
2019-06-07T14:19:28.764Z,39.86
2019-06-07T14:22:00.369Z,39.44
2019-06-07T14:24:31.663Z,39.94
2019-06-07T14:27:08.794Z,38.19
2019-06-07T14:29:40.490Z,37.25
2019-06-07T14:32:11.689Z,34.96
2019-06-07T14:34:42.850Z,32.59
2019-06-07T14:37:14.180Z,33.71
2019-06-07T14:39:45.496Z,32.82
2019-06-07T14:42:18.362Z,31.62
2019-06-07T14:44:49.777Z,30.78
2019-06-07T14:47:21.045Z,31.56
2019-06-07T14:49:52.207Z,30.37
2019-06-07T14:52:24.858Z,29.18
2019-06-07T14:54:59.267Z,26.90
2019-06-07T14:57:34.220Z,26.02
2019-06-07T15:00:14.087Z,26.14
2019-06-07T15:02:46.717Z,26.02
2019-06-07T15:05:20.830Z,25.64
2019-06-07T15:07:52.183Z,24.10
2019-06-07T15:10:24.401Z,25.56
2019-06-07T15:12:56.818Z,24.96
2019-06-07T15:15:28.895Z,25.77
2019-06-07T15:18:01.537Z,24.66
2019-06-07T15:20:34.087Z,23.61
2019-06-07T15:23:07.582Z,22.45
2019-06-07T15:25:41.141Z,22.67
2019-06-07T15:28:13.740Z,21.43
2019-06-07T15:30:45.231Z,21.53
2019-06-07T15:33:18.622Z,20.74
2019-06-07T15:35:51.241Z,20.91
2019-06-07T15:38:23.939Z,21.90
2019-06-07T15:40:57.827Z,22.89
2019-06-07T15:43:31.058Z,25.05
2019-06-07T15:46:02.395Z,26.02
2019-06-07T15:48:36.073Z,25.66
2019-06-07T15:51:08.197Z,23.55
2019-06-07T15:53:44.453Z,22.96
2019-06-07T15:56:14.627Z,22.90
2019-06-07T15:58:48.186Z,22.87
2019-06-07T16:01:21.143Z,24.63
2019-06-07T16:03:53.872Z,25.86
2019-06-07T16:06:32.160Z,29.15
2019-06-07T16:09:06.889Z,29.39
2019-06-07T17:43:59.963Z,22.82
2019-06-07T17:46:25.735Z,23.81
2019-06-07T17:48:57.268Z,23.82
2019-06-07T17:51:30.300Z,24.13
2019-06-07T17:54:02.149Z,24.01
2019-06-07T17:56:33.687Z,23.90
2019-06-07T17:59:05.636Z,25.07
2019-06-07T18:01:41.465Z,25.32
2019-06-07T18:04:09.908Z,25.93
2019-06-07T18:06:41.643Z,26.29
2019-06-07T18:09:14.153Z,26.89
2019-06-07T18:11:45.851Z,28.11
2019-06-07T18:14:17.317Z,30.78
2019-06-07T18:16:48.645Z,30.92
2019-06-07T18:19:20.332Z,31.65
2019-06-07T18:21:57.367Z,32.30
2019-06-07T18:24:34.804Z,32.83
2019-06-07T18:27:09.271Z,35.61
2019-06-07T18:29:41.819Z,39.79
2019-06-07T18:32:13.740Z,43.04
2019-06-07T18:34:46.701Z,45.60
2019-06-07T18:37:19.293Z,47.25
2019-06-07T18:39:51.673Z,48.57
2019-06-07T18:42:23.531Z,49.81
